Time;durP1;ratioP1;P1;durP2;ratioP2;P2;SDS_P1;SDS_P2;PMS_P1;PMS_P2;Temp;Humidity;BMP_temperature;BMP_pressure;BME280_temperature;BME280_humidity;BME280_pressure;Samples;Min_cycle;Max_cycle;Signal;HPM_P1;HPM_P2
2023/01/16 00:00:52;;;;;;;2.38;1.83;;;5.80;99.90;;;;;;5072272;28;20073;-40
2023/01/16 00:03:17;;;;;;;3.50;1.80;;;5.80;99.90;;;;;;5073599;28;20096;-36
2023/01/16 00:05:44;;;;;;;3.83;2.22;;;5.70;99.90;;;;;;5071488;28;20128;-37
2023/01/16 00:08:09;;;;;;;5.35;2.22;;;5.70;99.90;;;;;;5071411;28;20020;-39
2023/01/16 00:10:35;;;;;;;3.60;2.63;;;5.70;99.90;;;;;;5068843;28;20073;-40
2023/01/16 00:13:01;;;;;;;7.63;2.38;;;5.70;99.90;;;;;;5064825;28;20032;-39
2023/01/16 00:15:29;;;;;;;4.75;2.67;;;5.70;99.90;;;;;;5071958;28;20036;-40
2023/01/16 00:17:55;;;;;;;3.55;2.92;;;5.70;99.90;;;;;;5071351;28;20021;-41
2023/01/16 00:20:21;;;;;;;6.43;2.80;;;5.60;99.90;;;;;;5070366;28;20021;-42
2023/01/16 00:22:46;;;;;;;3.10;2.70;;;5.60;99.90;;;;;;5067651;28;20472;-49
2023/01/16 00:25:12;;;;;;;4.28;3.38;;;5.60;99.90;;;;;;5063254;28;20040;-42
2023/01/16 00:27:38;;;;;;;4.85;3.50;;;5.60;99.90;;;;;;5069600;28;20377;-41
2023/01/16 00:30:06;;;;;;;5.70;3.00;;;5.60;99.90;;;;;;5072948;28;20095;-42
2023/01/16 00:32:31;;;;;;;6.20;4.45;;;5.50;99.90;;;;;;5071459;28;20252;-37
2023/01/16 00:34:57;;;;;;;6.22;3.75;;;5.50;99.90;;;;;;5072764;28;20024;-44
2023/01/16 00:37:22;;;;;;;6.72;3.72;;;5.50;99.90;;;;;;5069948;28;20020;-41
2023/01/16 00:39:48;;;;;;;6.88;4.40;;;5.50;99.90;;;;;;5071365;28;20476;-38
2023/01/16 00:42:14;;;;;;;6.32;4.05;;;5.50;99.90;;;;;;5071896;28;20040;-42
2023/01/16 00:44:40;;;;;;;6.47;4.07;;;5.60;99.90;;;;;;5073107;28;20044;-43
2023/01/16 00:47:06;;;;;;;7.22;4.28;;;5.60;99.90;;;;;;5072568;28;20542;-41
2023/01/16 00:49:32;;;;;;;8.57;4.75;;;5.50;99.90;;;;;;5069650;28;20040;-41
2023/01/16 00:51:58;;;;;;;6.75;4.57;;;5.50;99.90;;;;;;5073142;28;20085;-43
2023/01/16 00:54:24;;;;;;;7.80;4.47;;;5.50;99.90;;;;;;5073337;28;20032;-40
2023/01/16 00:56:49;;;;;;;8.30;4.65;;;5.40;99.90;;;;;;5071900;28;20733;-41
2023/01/16 00:59:15;;;;;;;8.18;5.32;;;5.40;99.90;;;;;;5072052;28;20495;-45
2023/01/16 01:01:40;;;;;;;9.95;5.53;;;5.40;99.90;;;;;;5072210;28;20033;-43
2023/01/16 01:04:06;;;;;;;5.97;4.00;;;5.40;99.90;;;;;;5073185;28;20436;-41
2023/01/16 01:06:33;;;;;;;11.98;4.75;;;5.40;99.90;;;;;;5073028;28;20039;-43
2023/01/16 01:08:58;;;;;;;10.07;5.05;;;5.40;99.90;;;;;;5073255;28;20024;-42
2023/01/16 01:11:24;;;;;;;8.68;4.63;;;5.40;99.90;;;;;;5072989;28;20035;-42
2023/01/16 01:13:50;;;;;;;7.38;3.80;;;5.40;99.90;;;;;;5072895;28;20024;-43
2023/01/16 01:16:16;;;;;;;4.40;3.70;;;5.30;99.90;;;;;;5072723;28;20020;-42
2023/01/16 01:18:42;;;;;;;5.82;4.00;;;5.30;99.90;;;;;;5072017;28;20032;-42
2023/01/16 01:21:08;;;;;;;11.35;4.15;;;5.20;99.90;;;;;;5072874;28;20393;-41
2023/01/16 01:23:34;;;;;;;10.50;3.47;;;5.20;99.90;;;;;;5072911;28;20074;-41
2023/01/16 01:26:09;;;;;;;10.23;4.75;;;5.20;99.90;;;;;;5073019;28;20033;-40
2023/01/16 01:28:35;;;;;;;8.10;4.38;;;5.10;99.90;;;;;;5073181;28;20526;-43
2023/01/16 01:31:05;;;;;;;5.88;3.40;;;5.00;99.90;;;;;;5072987;28;20552;-40
2023/01/16 01:33:31;;;;;;;11.75;3.72;;;5.00;99.90;;;;;;5072189;28;20473;-42
2023/01/16 01:35:56;;;;;;;7.38;4.13;;;5.00;99.90;;;;;;5070923;28;20017;-41
2023/01/16 01:38:22;;;;;;;6.38;3.60;;;4.90;99.90;;;;;;5071255;28;20539;-42
2023/01/16 01:40:48;;;;;;;9.52;3.83;;;4.90;99.90;;;;;;5072622;28;20028;-42
2023/01/16 01:43:15;;;;;;;4.93;3.17;;;4.90;99.90;;;;;;5072322;28;20120;-43
2023/01/16 01:45:46;;;;;;;5.18;3.47;;;4.80;99.90;;;;;;5064474;28;20492;-43
2023/01/16 01:48:11;;;;;;;8.20;3.58;;;4.80;99.90;;;;;;5071379;28;20021;-44
2023/01/16 01:51:01;;;;;;;8.73;3.65;;;4.80;99.90;;;;;;5072596;28;20036;-43
2023/01/16 01:53:32;;;;;;;9.73;2.97;;;4.80;99.90;;;;;;5076564;28;20033;-41
2023/01/16 01:56:21;;;;;;;10.38;3.50;;;4.80;99.90;;;;;;5076897;28;20483;-43
2023/01/16 01:58:52;;;;;;;4.90;3.58;;;4.70;99.90;;;;;;5068855;28;20441;-35
2023/01/16 02:01:17;;;;;;;6.25;3.15;;;4.70;99.90;;;;;;5075632;28;20528;-34
2023/01/16 02:03:50;;;;;;;8.98;3.60;;;4.70;99.90;;;;;;5075077;28;20116;-40
2023/01/16 02:06:25;;;;;;;7.80;2.72;;;4.60;99.90;;;;;;5076350;28;20107;-36
2023/01/16 02:08:53;;;;;;;14.63;4.60;;;4.60;99.90;;;;;;5074780;28;20384;-37
2023/01/16 02:11:27;;;;;;;7.97;2.80;;;4.50;99.90;;;;;;5076315;28;20075;-39
2023/01/16 02:13:59;;;;;;;7.90;2.80;;;4.50;99.90;;;;;;5076520;28;20064;-37
2023/01/16 02:19:19;;;;;;;11.20;3.00;;;4.60;99.90;;;;;;5070639;28;20127;-36
2023/01/16 02:22:06;;;;;;;9.15;2.60;;;4.50;99.90;;;;;;5074602;28;20025;-37
2023/01/16 02:24:46;;;;;;;5.00;3.00;;;4.50;99.90;;;;;;5076293;28;20507;-36
2023/01/16 02:27:36;;;;;;;4.63;3.17;;;4.60;99.90;;;;;;5075838;28;20488;-33
2023/01/16 02:30:33;;;;;;;6.97;3.35;;;4.60;99.90;;;;;;5075186;28;20032;-37
2023/01/16 02:33:05;;;;;;;5.97;2.97;;;4.70;99.90;;;;;;5074780;28;20033;-37
2023/01/16 02:35:41;;;;;;;5.88;2.75;;;4.70;99.90;;;;;;5074795;28;20035;-34
2023/01/16 02:38:33;;;;;;;10.20;3.08;;;4.70;99.90;;;;;;5076174;28;20032;-37
2023/01/16 02:41:17;;;;;;;4.47;2.40;;;4.70;99.90;;;;;;5064575;28;20087;-38
2023/01/16 02:43:54;;;;;;;9.10;2.40;;;4.60;99.90;;;;;;5075422;28;20053;-38
2023/01/16 02:46:36;;;;;;;3.80;2.60;;;4.60;99.90;;;;;;5076077;28;20476;-34
2023/01/16 02:49:10;;;;;;;5.63;2.70;;;4.60;99.90;;;;;;5074770;28;20388;-36
2023/01/16 02:51:36;;;;;;;6.65;2.40;;;4.60;99.90;;;;;;5075460;28;20067;-34
2023/01/16 02:54:13;;;;;;;2.38;1.98;;;4.60;99.90;;;;;;5075659;28;20488;-38
2023/01/16 02:56:52;;;;;;;4.00;1.90;;;4.50;99.90;;;;;;5075737;28;20492;-40
2023/01/16 02:59:19;;;;;;;6.43;1.83;;;4.50;99.90;;;;;;5075552;28;20021;-37
2023/01/16 03:01:46;;;;;;;2.67;1.75;;;4.50;99.90;;;;;;5075350;28;20481;-37
2023/01/16 03:04:45;;;;;;;5.25;1.63;;;4.60;99.90;;;;;;5073670;28;20028;-34
2023/01/16 03:07:35;;;;;;;7.13;1.60;;;4.50;99.90;;;;;;5075351;28;20024;-39
2023/01/16 03:10:21;;;;;;;1.75;1.17;;;4.50;99.90;;;;;;5075276;28;20033;-36
2023/01/16 03:13:24;;;;;;;1.70;1.20;;;4.50;99.90;;;;;;5070845;28;20037;-37
2023/01/16 03:15:50;;;;;;;3.20;1.60;;;4.50;99.90;;;;;;5073819;28;20492;-37
2023/01/16 03:18:40;;;;;;;4.43;1.30;;;4.50;99.90;;;;;;5074013;28;20047;-32
2023/01/16 03:21:09;;;;;;;3.38;1.42;;;4.50;99.90;;;;;;5055009;28;20120;-36
2023/01/16 03:23:46;;;;;;;2.25;1.20;;;4.50;99.90;;;;;;5073906;28;20037;-37
2023/01/16 03:26:17;;;;;;;9.10;1.00;;;4.60;99.90;;;;;;5058723;28;20492;-32
2023/01/16 03:29:34;;;;;;;4.32;0.90;;;4.50;99.90;;;;;;5074145;28;20044;-35
2023/01/16 03:32:11;;;;;;;;;;;4.60;99.90;;;;;;5070392;28;20044;-41
2023/01/16 03:34:53;;;;;;;2.97;0.75;;;4.50;99.90;;;;;;5061746;28;19915;-41
2023/01/16 03:37:29;;;;;;;4.70;0.93;;;4.50;99.90;;;;;;5073885;28;20027;-42
2023/01/16 03:40:00;;;;;;;3.58;0.68;;;4.50;99.90;;;;;;5074066;28;20054;-41
2023/01/16 03:42:34;;;;;;;3.80;1.08;;;4.50;99.90;;;;;;5074446;28;20034;-43
2023/01/16 03:45:09;;;;;;;4.43;0.90;;;4.60;99.90;;;;;;5073893;28;20052;-40
2023/01/16 03:47:49;;;;;;;6.47;0.80;;;4.60;99.90;;;;;;5054717;28;20446;-43
2023/01/16 03:50:20;;;;;;;2.00;1.00;;;4.60;99.90;;;;;;5062712;28;20046;-41
2023/01/16 03:52:51;;;;;;;3.50;1.05;;;4.60;99.90;;;;;;5073657;28;20041;-42
2023/01/16 03:55:39;;;;;;;5.35;0.90;;;4.70;99.90;;;;;;5074480;28;20107;-44
2023/01/16 03:58:18;;;;;;;3.75;0.65;;;4.70;99.90;;;;;;5074104;28;20025;-45
2023/01/16 04:00:57;;;;;;;0.85;0.38;;;4.80;99.90;;;;;;5074394;28;20025;-45
2023/01/16 04:03:28;;;;;;;3.63;0.88;;;4.80;99.90;;;;;;5074350;28;20104;-42
2023/01/16 04:06:23;;;;;;;2.20;0.70;;;4.80;99.90;;;;;;5073069;28;20052;-42
2023/01/16 04:08:52;;;;;;;3.80;0.85;;;4.80;99.90;;;;;;5061932;28;20075;-45
2023/01/16 04:11:20;;;;;;;5.07;0.93;;;4.80;99.90;;;;;;5056767;28;20032;-45
2023/01/16 04:13:49;;;;;;;4.90;1.33;;;4.90;99.90;;;;;;5074278;28;20035;-37
2023/01/16 04:16:17;;;;;;;7.60;1.20;;;4.90;99.90;;;;;;5073009;28;20267;-38
2023/01/16 04:18:44;;;;;;;5.10;0.73;;;4.90;99.90;;;;;;5074242;28;20025;-37
2023/01/16 04:21:10;;;;;;;2.85;0.80;;;4.90;99.90;;;;;;5072858;28;20008;-38
2023/01/16 04:23:36;;;;;;;3.58;0.85;;;4.90;99.90;;;;;;5074140;28;20032;-37
2023/01/16 04:26:02;;;;;;;1.08;0.90;;;4.90;99.90;;;;;;5073720;28;20083;-34
2023/01/16 04:28:28;;;;;;;0.55;0.50;;;4.80;99.90;;;;;;5073773;28;20031;-37
2023/01/16 04:30:53;;;;;;;6.28;1.08;;;4.80;99.90;;;;;;5073585;28;20052;-36
2023/01/16 04:33:19;;;;;;;1.52;0.90;;;4.80;99.90;;;;;;5071990;28;20039;-36
2023/01/16 04:35:45;;;;;;;1.75;0.50;;;4.80;99.90;;;;;;5073131;28;20035;-36
2023/01/16 04:38:12;;;;;;;1.60;0.60;;;4.80;99.90;;;;;;5072217;28;20733;-37
2023/01/16 04:40:37;;;;;;;3.67;0.95;;;4.80;99.90;;;;;;5071461;28;20032;-37
2023/01/16 04:43:03;;;;;;;2.50;0.90;;;4.80;99.90;;;;;;5069555;28;20374;-35
2023/01/16 04:45:29;;;;;;;6.35;0.90;;;4.80;99.90;;;;;;5069136;28;20028;-42
2023/01/16 04:47:55;;;;;;;7.38;0.95;;;4.80;99.90;;;;;;5071687;28;20056;-41
2023/01/16 04:50:21;;;;;;;1.05;0.70;;;4.80;99.90;;;;;;5065506;28;20031;-40
2023/01/16 04:52:46;;;;;;;4.82;0.90;;;4.70;99.90;;;;;;5072359;28;20024;-44
2023/01/16 04:55:12;;;;;;;7.10;0.80;;;4.70;99.90;;;;;;5073205;28;20381;-41
2023/01/16 04:57:38;;;;;;;6.32;0.90;;;4.60;99.90;;;;;;5073179;28;20518;-42
2023/01/16 05:00:05;;;;;;;2.95;0.82;;;4.60;99.90;;;;;;5073372;28;20021;-42
2023/01/16 05:02:31;;;;;;;2.58;0.93;;;4.50;99.90;;;;;;5072503;28;20029;-41
2023/01/16 05:04:56;;;;;;;4.47;0.80;;;4.60;99.90;;;;;;5073188;28;20035;-41
2023/01/16 05:07:22;;;;;;;1.70;0.98;;;4.60;99.90;;;;;;5071271;28;20036;-40
2023/01/16 05:09:47;;;;;;;2.60;0.82;;;4.50;99.90;;;;;;5073090;28;20393;-42
2023/01/16 05:12:13;;;;;;;7.63;1.27;;;4.60;99.90;;;;;;5073082;28;20506;-41
2023/01/16 05:14:39;;;;;;;4.00;0.80;;;4.60;99.90;;;;;;5072914;28;20024;-41
2023/01/16 05:17:04;;;;;;;3.40;0.90;;;4.60;99.90;;;;;;5072878;28;20024;-40
2023/01/16 05:19:30;;;;;;;8.52;1.48;;;4.60;99.90;;;;;;5073016;28;20023;-42
2023/01/16 05:21:55;;;;;;;0.68;0.40;;;4.60;99.90;;;;;;5071084;28;20492;-41
2023/01/16 05:24:21;;;;;;;3.30;1.90;;;4.60;99.90;;;;;;5072228;28;20037;-43
2023/01/16 05:26:47;;;;;;;1.25;0.52;;;4.70;99.90;;;;;;5072579;28;20376;-41
2023/01/16 05:29:12;;;;;;;1.17;0.57;;;4.70;99.90;;;;;;5072878;28;20020;-41
2023/01/16 05:31:38;;;;;;;2.03;0.80;;;4.70;99.90;;;;;;5073741;28;20499;-42
2023/01/16 05:34:03;;;;;;;6.43;1.10;;;4.70;99.90;;;;;;5069723;28;20052;-41
2023/01/16 05:36:29;;;;;;;2.40;0.90;;;4.70;99.90;;;;;;5071515;28;20083;-41
2023/01/16 05:38:55;;;;;;;4.82;0.90;;;4.70;99.90;;;;;;5072665;28;20028;-45
2023/01/16 05:41:20;;;;;;;6.25;1.00;;;4.60;99.90;;;;;;5072104;28;20036;-42
2023/01/16 05:43:46;;;;;;;5.82;1.05;;;4.70;99.90;;;;;;5071244;28;20037;-41
2023/01/16 05:46:12;;;;;;;5.15;1.00;;;4.70;99.90;;;;;;5071968;28;20021;-42
2023/01/16 05:48:38;;;;;;;1.95;0.70;;;4.70;99.90;;;;;;5071633;28;20056;-39
2023/01/16 05:51:04;;;;;;;5.25;1.23;;;4.70;99.90;;;;;;5069188;28;20024;-45
2023/01/16 05:53:30;;;;;;;1.50;0.90;;;4.70;99.90;;;;;;5071906;28;20411;-42
2023/01/16 05:55:57;;;;;;;3.55;1.40;;;4.80;99.90;;;;;;5072477;28;20017;-46
2023/01/16 05:58:23;;;;;;;4.78;0.70;;;4.70;99.90;;;;;;5072511;28;20480;-42
2023/01/16 06:00:48;;;;;;;6.07;0.73;;;4.80;99.90;;;;;;5072592;28;20055;-42
2023/01/16 06:03:21;;;;;;;5.72;1.70;;;4.80;99.90;;;;;;5071640;28;20032;-49
2023/01/16 06:05:47;;;;;;;6.72;0.90;;;4.80;99.90;;;;;;5071466;28;20476;-41
2023/01/16 06:08:12;;;;;;;2.20;0.85;;;4.80;99.90;;;;;;5071581;28;20029;-42
2023/01/16 06:10:38;;;;;;;5.97;0.90;;;4.90;99.90;;;;;;5072503;28;20538;-42
2023/01/16 06:13:04;;;;;;;4.63;1.65;;;4.90;99.90;;;;;;5072291;28;20070;-42
2023/01/16 06:15:29;;;;;;;3.60;0.52;;;4.90;99.90;;;;;;5072396;28;20103;-42
2023/01/16 06:17:55;;;;;;;2.33;0.77;;;4.90;99.90;;;;;;5070942;28;20396;-42
2023/01/16 06:20:22;;;;;;;8.57;1.50;;;4.90;99.90;;;;;;5071008;28;20033;-44
2023/01/16 06:22:47;;;;;;;2.28;0.82;;;5.00;99.90;;;;;;5071899;28;20401;-40
2023/01/16 06:25:14;;;;;;;2.00;0.77;;;5.00;99.90;;;;;;5072249;28;20115;-39
2023/01/16 06:27:39;;;;;;;4.43;1.50;;;5.00;99.90;;;;;;5071204;28;20028;-42
2023/01/16 06:30:06;;;;;;;2.65;1.33;;;4.90;99.90;;;;;;5072300;28;20120;-41
2023/01/16 06:32:32;;;;;;;2.97;1.00;;;4.90;99.90;;;;;;5070577;28;20040;-41
2023/01/16 06:34:58;;;;;;;5.63;0.70;;;4.80;99.90;;;;;;5072281;28;20033;-43
2023/01/16 06:37:23;;;;;;;1.67;0.60;;;4.80;99.90;;;;;;5071130;28;20029;-47
2023/01/16 06:39:49;;;;;;;4.10;1.00;;;4.80;99.90;;;;;;5075934;28;20473;-42
2023/01/16 06:42:17;;;;;;;4.47;0.73;;;4.80;99.90;;;;;;5075155;28;20493;-40
2023/01/16 06:44:43;;;;;;;4.45;0.90;;;4.80;99.90;;;;;;5075694;28;20504;-44
2023/01/16 06:47:09;;;;;;;11.90;0.70;;;4.80;99.90;;;;;;5074740;28;20156;-41
2023/01/16 06:49:35;;;;;;;1.33;0.88;;;4.80;99.90;;;;;;5075724;28;20116;-41
2023/01/16 06:52:00;;;;;;;3.78;0.80;;;4.80;99.90;;;;;;5074760;28;20440;-42
2023/01/16 06:54:27;;;;;;;1.58;0.80;;;4.80;99.90;;;;;;5075451;28;20442;-39
2023/01/16 06:56:52;;;;;;;4.15;0.77;;;4.80;99.90;;;;;;5074839;28;20016;-41
2023/01/16 06:59:18;;;;;;;6.15;1.02;;;4.80;99.90;;;;;;5075349;28;20556;-41
2023/01/16 07:01:44;;;;;;;4.88;1.00;;;4.80;99.90;;;;;;5075474;28;20035;-40
2023/01/16 07:04:09;;;;;;;6.13;1.20;;;4.80;99.90;;;;;;5073367;28;20103;-40
2023/01/16 07:06:36;;;;;;;7.43;0.93;;;4.90;99.90;;;;;;5072308;28;20037;-40
2023/01/16 07:09:02;;;;;;;5.35;1.48;;;4.90;99.90;;;;;;5073610;28;20086;-41
2023/01/16 07:11:27;;;;;;;8.18;0.77;;;4.80;99.90;;;;;;5074785;28;20464;-41
2023/01/16 07:22:34;;;;;;;4.95;0.95;;;4.80;99.90;;;;;;5075241;28;20070;-40
2023/01/16 07:24:54;;;;;;;6.10;1.27;;;4.80;99.90;;;;;;5073134;28;20078;-39
2023/01/16 07:27:20;;;;;;;3.05;0.50;;;4.70;99.90;;;;;;5073911;28;20033;-38
2023/01/16 07:29:46;;;;;;;4.88;0.90;;;4.70;99.90;;;;;;5073934;28;20107;-38
2023/01/16 07:32:11;;;;;;;3.40;1.13;;;4.70;99.90;;;;;;5074903;28;20047;-40
2023/01/16 07:34:37;;;;;;;3.60;0.63;;;4.70;99.90;;;;;;5072929;28;20560;-39
2023/01/16 07:37:07;;;;;;;4.15;0.63;;;4.70;99.90;;;;;;5074292;28;20074;-38
2023/01/16 07:39:32;;;;;;;8.55;1.83;;;4.60;99.90;;;;;;5074031;28;20461;-38
2023/01/16 07:42:06;;;;;;;7.10;1.15;;;4.60;99.90;;;;;;5074680;28;20028;-38
2023/01/16 07:44:32;;;;;;;2.38;0.68;;;4.50;99.90;;;;;;5073130;28;20132;-33
2023/01/16 07:46:57;;;;;;;3.88;0.90;;;4.60;99.90;;;;;;5073674;28;20536;-38
2023/01/16 07:49:23;;;;;;;1.92;0.63;;;4.60;99.90;;;;;;5072932;28;20385;-37
2023/01/16 07:51:48;;;;;;;1.60;0.70;;;4.50;99.90;;;;;;5073637;28;20028;-34
2023/01/16 07:54:14;;;;;;;4.65;0.77;;;4.50;99.90;;;;;;5072653;28;20020;-38
2023/01/16 07:56:40;;;;;;;3.22;0.70;;;4.50;99.90;;;;;;5073599;28;20025;-37
2023/01/16 07:59:06;;;;;;;4.40;1.08;;;4.50;99.90;;;;;;5074364;28;20491;-35
2023/01/16 08:01:31;;;;;;;2.85;0.80;;;4.50;99.90;;;;;;5072431;28;20060;-32
2023/01/16 08:03:57;;;;;;;5.88;0.57;;;4.50;99.90;;;;;;5070703;28;20505;-35
2023/01/16 08:06:23;;;;;;;3.58;0.70;;;4.50;99.90;;;;;;5073330;28;20085;-37
2023/01/16 08:08:48;;;;;;;0.40;0.40;;;4.60;99.90;;;;;;5073121;28;20387;-37
2023/01/16 08:13:58;;;;;;;3.22;0.52;;;4.60;99.90;;;;;;5073258;28;20035;-36
2023/01/16 08:16:24;;;;;;;0.90;0.40;;;4.50;99.90;;;;;;5074050;28;20473;-35
2023/01/16 08:18:49;;;;;;;4.00;0.50;;;4.50;99.90;;;;;;5073082;28;20024;-37
2023/01/16 08:21:16;;;;;;;6.15;0.50;;;4.50;99.90;;;;;;5073360;28;20510;-38
2023/01/16 08:23:43;;;;;;;2.55;0.57;;;4.50;99.90;;;;;;5073167;28;20028;-35
2023/01/16 08:26:09;;;;;;;1.05;0.60;;;4.50;99.90;;;;;;5073827;28;20104;-36
2023/01/16 08:28:35;;;;;;;1.95;0.60;;;4.50;99.90;;;;;;5073819;28;20016;-35
2023/01/16 08:31:11;;;;;;;1.45;0.82;;;4.50;99.90;;;;;;5073209;28;20031;-38
2023/01/16 08:33:37;;;;;;;0.75;0.60;;;4.60;99.90;;;;;;5070575;28;20048;-36
2023/01/16 08:36:23;;;;;;;6.50;0.50;;;4.50;99.90;;;;;;5070486;28;20024;-36
2023/01/16 08:38:48;;;;;;;1.95;0.60;;;4.60;99.90;;;;;;5073619;28;20110;-36
2023/01/16 08:52:34;;;;;;;3.30;1.10;;;4.60;99.90;;;;;;5065647;28;20135;-48
2023/01/16 08:55:00;;;;;;;5.45;0.80;;;4.60;99.90;;;;;;5071217;28;20021;-48
2023/01/16 08:57:29;;;;;;;6.13;1.17;;;4.60;99.90;;;;;;5073118;28;20545;-34
2023/01/16 08:59:56;;;;;;;1.27;0.93;;;4.70;99.90;;;;;;5072309;28;20028;-39
2023/01/16 09:02:23;;;;;;;2.15;1.02;;;4.60;99.90;;;;;;5068345;28;20456;-34
2023/01/16 09:04:49;;;;;;;7.18;1.23;;;4.70;99.90;;;;;;5063364;28;20032;-38
2023/01/16 09:07:16;;;;;;;2.38;1.25;;;4.70;99.90;;;;;;5070897;28;20036;-41
2023/01/16 09:09:42;;;;;;;2.78;1.17;;;4.70;99.90;;;;;;5069377;28;20477;-37
2023/01/16 09:14:56;;;;;;;2.53;1.10;;;4.70;99.90;;;;;;5063557;28;20074;-38
2023/01/16 09:17:24;;;;;;;5.05;1.02;;;4.70;99.90;;;;;;5071317;28;20103;-38
2023/01/16 09:19:50;;;;;;;2.00;1.17;;;4.70;99.90;;;;;;5071343;28;20020;-38
2023/01/16 09:22:16;;;;;;;2.17;1.40;;;4.70;99.90;;;;;;5070248;28;20438;-38
2023/01/16 09:24:41;;;;;;;1.33;1.17;;;4.80;99.90;;;;;;5070794;28;20013;-40
2023/01/16 09:27:07;;;;;;;4.78;1.73;;;4.80;99.90;;;;;;5072747;28;20092;-38
2023/01/16 09:29:32;;;;;;;1.63;1.27;;;4.80;99.90;;;;;;5071501;28;20119;-38
2023/01/16 09:32:00;;;;;;;2.42;1.33;;;4.80;99.90;;;;;;5075760;28;20036;-38
2023/01/16 09:34:26;;;;;;;7.88;2.05;;;4.80;99.90;;;;;;5072786;28;20029;-39
2023/01/16 09:36:52;;;;;;;1.50;1.40;;;4.80;99.90;;;;;;5071574;28;20548;-38
2023/01/16 09:39:18;;;;;;;4.45;1.88;;;4.90;99.90;;;;;;5072032;28;20048;-39
2023/01/16 09:44:45;;;;;;;3.35;1.20;;;5.00;99.90;;;;;;5072501;28;20055;-38
2023/01/16 09:47:11;;;;;;;6.82;1.70;;;5.10;99.90;;;;;;5072630;28;20536;-35
2023/01/16 09:49:51;;;;;;;6.18;1.67;;;5.10;99.90;;;;;;5078981;28;20111;-47
2023/01/16 09:58:36;;;;;;;3.63;1.70;;;5.10;99.90;;;;;;5068322;28;20043;-47
2023/01/16 10:01:10;;;;;;;4.18;1.20;;;5.10;99.90;;;;;;5071550;28;20111;-47
2023/01/16 10:03:42;;;;;;;2.30;1.13;;;5.20;99.90;;;;;;5072572;28;20038;-47
2023/01/16 10:06:20;;;;;;;2.40;1.15;;;5.20;99.90;;;;;;5071931;28;20036;-48
2023/01/16 10:08:58;;;;;;;;;;;5.20;99.90;;;;;;5072907;28;20029;-47
2023/01/16 10:11:50;;;;;;;5.88;0.90;;;5.20;99.90;;;;;;5071871;28;19917;-36
2023/01/16 10:14:51;;;;;;;1.88;1.10;;;5.20;99.90;;;;;;5056284;28;20528;-38
2023/01/16 10:17:21;;;;;;;0.82;0.68;;;5.20;99.90;;;;;;5060552;28;20021;-36
2023/01/16 10:20:23;;;;;;;2.05;0.60;;;5.20;99.90;;;;;;5076054;28;20020;-36
2023/01/16 10:23:03;;;;;;;3.03;0.98;;;5.20;99.90;;;;;;5076182;28;20107;-35
2023/01/16 10:25:46;;;;;;;1.00;0.57;;;5.20;99.90;;;;;;5076164;28;20020;-47
2023/01/16 10:28:27;;;;;;;1.30;0.70;;;5.20;99.90;;;;;;5076109;28;20029;-46
2023/01/16 10:31:03;;;;;;;0.50;0.50;;;5.20;99.90;;;;;;5056430;28;20021;-48
2023/01/16 10:33:32;;;;;;;2.28;0.63;;;5.20;99.90;;;;;;5073547;28;20021;-48
2023/01/16 10:36:00;;;;;;;0.95;0.90;;;5.20;99.90;;;;;;5073461;28;20468;-47
2023/01/16 10:38:45;;;;;;;;;;;5.20;99.90;;;;;;5076210;28;20103;-46
2023/01/16 10:49:25;;;;;;;2.90;1.40;;;5.20;99.90;;;;;;5069903;28;19908;-49
2023/01/16 10:49:29;;;;;;;2.70;0.80;;;5.20;99.90;;;;;;5072838;28;20059;-47
2023/01/16 10:51:58;;;;;;;1.17;0.70;;;5.10;99.90;;;;;;5075089;28;20064;-47
2023/01/16 10:54:23;;;;;;;;;;;5.10;99.90;;;;;;5073715;28;20031;-48
2023/01/16 10:56:49;;;;;;;2.22;0.70;;;5.20;99.90;;;;;;5074782;28;19909;-48
2023/01/16 10:59:15;;;;;;;1.23;0.47;;;5.20;99.90;;;;;;5074689;28;20062;-48
2023/01/16 11:01:42;;;;;;;1.25;0.63;;;5.20;99.90;;;;;;5073348;28;20361;-47
2023/01/16 11:04:11;;;;;;;4.65;1.10;;;5.20;99.90;;;;;;5067951;28;20504;-47
2023/01/16 11:06:40;;;;;;;1.77;0.80;;;5.30;99.90;;;;;;5067911;28;20487;-38
2023/01/16 11:09:13;;;;;;;0.90;0.90;;;5.20;99.90;;;;;;5064019;28;20028;-38
2023/01/16 11:20:34;;;;;;;2.35;0.57;;;5.30;99.90;;;;;;5061342;28;20393;-37
2023/01/16 11:23:04;;;;;;;0.80;0.68;;;5.30;99.90;;;;;;5071058;28;20041;-38
2023/01/16 11:25:31;;;;;;;2.03;0.88;;;5.30;99.90;;;;;;5074192;28;20032;-38
2023/01/16 11:28:02;;;;;;;3.88;1.10;;;5.40;99.90;;;;;;5071366;28;20032;-39
2023/01/16 11:30:47;;;;;;;0.98;0.70;;;5.40;99.90;;;;;;5071331;28;20038;-34
2023/01/16 11:33:24;;;;;;;2.75;0.80;;;5.40;99.90;;;;;;5072954;28;20528;-38
2023/01/16 11:36:01;;;;;;;2.25;0.70;;;5.50;99.90;;;;;;5069860;28;20066;-39
2023/01/16 11:38:29;;;;;;;0.82;0.65;;;5.60;99.90;;;;;;5071108;28;20039;-39
2023/01/16 11:40:58;;;;;;;0.80;0.57;;;5.70;99.90;;;;;;5072972;28;20488;-38
2023/01/16 11:46:40;;;;;;;2.95;0.70;;;5.70;99.90;;;;;;5074305;28;20059;-34
2023/01/16 11:49:18;;;;;;;0.47;0.47;;;5.80;99.90;;;;;;5054704;28;20499;-38
2023/01/16 11:51:48;;;;;;;1.23;0.60;;;5.80;99.90;;;;;;5068874;28;20921;-40
2023/01/16 11:54:16;;;;;;;2.55;2.20;;;5.80;99.90;;;;;;5073549;28;20055;-39
2023/01/16 11:57:00;;;;;;;4.80;1.00;;;5.90;99.90;;;;;;5073347;28;20032;-39
2023/01/16 11:59:54;;;;;;;1.88;1.20;;;6.00;99.90;;;;;;5070433;28;20487;-40
2023/01/16 12:02:32;;;;;;;1.10;1.00;;;6.10;99.90;;;;;;5065863;28;20387;-39
2023/01/16 12:08:24;;;;;;;1.48;1.38;;;6.10;99.90;;;;;;5073497;28;20046;-37
2023/01/16 12:11:06;;;;;;;1.00;0.93;;;6.20;99.90;;;;;;5067650;28;20138;-35
2023/01/16 12:16:51;;;;;;;1.27;0.90;;;6.30;99.90;;;;;;5062466;28;20515;-36
2023/01/16 12:19:16;;;;;;;1.95;0.80;;;6.40;99.90;;;;;;5061741;28;20468;-39
2023/01/16 12:21:49;;;;;;;1.52;0.90;;;6.40;99.90;;;;;;5069676;28;20021;-38
2023/01/16 12:24:15;;;;;;;2.42;1.10;;;6.40;99.90;;;;;;5067556;28;20507;-38
2023/01/16 12:26:55;;;;;;;1.45;1.00;;;6.40;99.90;;;;;;5067621;28;20032;-36
2023/01/16 12:29:38;;;;;;;3.40;0.70;;;6.40;99.90;;;;;;5069363;28;20033;-38
2023/01/16 12:32:09;;;;;;;0.82;0.80;;;6.40;99.90;;;;;;5070010;28;20036;-38
2023/01/16 12:34:58;;;;;;;2.20;0.90;;;6.40;99.90;;;;;;5068747;28;20037;-39
2023/01/16 12:37:56;;;;;;;1.17;0.80;;;6.30;99.90;;;;;;5066913;28;20025;-39
2023/01/16 12:40:40;;;;;;;3.45;1.88;;;6.30;99.90;;;;;;5057623;28;20024;-36
2023/01/16 12:43:30;;;;;;;1.92;1.50;;;6.30;99.90;;;;;;5066507;28;20500;-38
2023/01/16 12:46:27;;;;;;;5.32;2.38;;;6.20;99.90;;;;;;5062081;28;20523;-39
2023/01/16 12:49:08;;;;;;;1.85;1.45;;;6.30;99.90;;;;;;5072278;28;20533;-35
2023/01/16 12:51:49;;;;;;;2.50;1.70;;;6.30;99.90;;;;;;5070118;28;20033;-33
2023/01/16 12:54:32;;;;;;;4.93;4.18;;;6.30;99.90;;;;;;5077671;28;20510;-39
2023/01/16 12:57:21;;;;;;;1.90;1.80;;;6.30;99.90;;;;;;5070154;28;20669;-35
2023/01/16 13:00:22;;;;;;;3.85;3.30;;;6.30;99.90;;;;;;5071117;28;20024;-38
2023/01/16 13:02:50;;;;;;;5.35;3.47;;;6.30;99.90;;;;;;5067613;28;20029;-35
2023/01/16 13:05:19;;;;;;;3.28;2.45;;;6.30;99.90;;;;;;5070304;28;20374;-39
2023/01/16 13:08:05;;;;;;;21.83;17.02;;;6.40;99.90;;;;;;5068362;28;22138;-37
2023/01/16 13:13:26;;;;;;;6.20;4.50;;;6.40;99.90;;;;;;5068702;28;20185;-36
2023/01/16 13:16:04;;;;;;;2.40;1.67;;;6.30;99.90;;;;;;5067838;28;20016;-33
2023/01/16 13:18:45;;;;;;;3.10;1.48;;;6.30;99.90;;;;;;5069449;28;20028;-35
2023/01/16 13:21:17;;;;;;;7.97;1.55;;;6.20;99.90;;;;;;5069216;28;20051;-36
2023/01/16 13:23:54;;;;;;;3.47;0.90;;;6.20;99.90;;;;;;5068917;28;20534;-36
2023/01/16 13:26:22;;;;;;;1.83;1.30;;;6.30;99.90;;;;;;5068578;28;20031;-35
2023/01/16 13:28:56;;;;;;;;;;;6.30;99.90;;;;;;5070729;28;20832;-36
2023/01/16 13:31:33;;;;;;;1.25;1.15;;;6.30;99.90;;;;;;5070052;28;19915;-33
2023/01/16 13:34:10;;;;;;;1.05;0.80;;;6.30;99.90;;;;;;5066536;28;20662;-33
2023/01/16 13:36:39;;;;;;;1.77;0.80;;;6.30;99.90;;;;;;5064247;28;20481;-33
2023/01/16 13:39:39;;;;;;;1.75;0.40;;;6.40;99.90;;;;;;5060419;28;20039;-38
2023/01/16 13:42:09;;;;;;;1.35;0.80;;;6.40;99.90;;;;;;5047511;28;20401;-36
2023/01/16 13:47:31;;;;;;;0.93;0.80;;;6.30;99.90;;;;;;5067390;28;20031;-33
2023/01/16 13:50:20;;;;;;;1.67;0.50;;;6.40;99.90;;;;;;5069998;28;20500;-33
2023/01/16 13:52:46;;;;;;;54.78;17.67;;;6.40;99.90;;;;;;5055284;28;20053;-36
2023/01/16 13:55:32;;;;;;;347.17;93.45;;;6.40;99.90;;;;;;5071672;28;20373;-35
2023/01/16 13:58:20;;;;;;;52.20;26.35;;;6.40;99.90;;;;;;5068988;28;20553;-39
2023/01/16 14:00:54;;;;;;;18.40;10.18;;;6.40;99.90;;;;;;5066140;28;20052;-39
2023/01/16 14:03:25;;;;;;;5.10;3.92;;;6.30;99.90;;;;;;5070619;28;20103;-33
2023/01/16 14:06:11;;;;;;;7.68;3.17;;;6.40;99.90;;;;;;5065444;28;20508;-38
2023/01/16 14:11:57;;;;;;;1.58;1.48;;;6.40;99.90;;;;;;5065632;28;20182;-37
2023/01/16 14:17:57;;;;;;;1.67;1.08;;;6.30;99.90;;;;;;5066581;28;20075;-47
2023/01/16 14:20:44;;;;;;;1.02;0.80;;;6.30;99.90;;;;;;5068444;28;20060;-47
2023/01/16 14:26:37;;;;;;;3.70;3.30;;;6.30;99.90;;;;;;5070469;28;20408;-47
2023/01/16 14:29:15;;;;;;;1.90;1.55;;;6.30;99.90;;;;;;5061423;28;20040;-48
2023/01/16 14:32:05;;;;;;;1.13;0.80;;;6.30;99.90;;;;;;5070291;28;20241;-47
2023/01/16 14:34:44;;;;;;;3.58;1.40;;;6.40;99.90;;;;;;5062133;28;20484;-47
2023/01/16 14:37:31;;;;;;;0.80;0.80;;;6.30;99.90;;;;;;5070936;28;20016;-47